sensor_id;sensor_type;location;lat;lon;timestamp;P1;durP1;ratioP1;P2;durP2;ratioP2
32918;SDS011;19280;42.646;21.150;2023-02-18T00:00:10;127.68;;;60.45;;
32918;SDS011;19280;42.646;21.150;2023-02-18T00:02:37;139.80;;;62.95;;
32918;SDS011;19280;42.646;21.150;2023-02-18T00:05:03;137.30;;;64.10;;
32918;SDS011;19280;42.646;21.150;2023-02-18T00:07:32;125.18;;;57.30;;
32918;SDS011;19280;42.646;21.150;2023-02-18T00:09:59;119.07;;;57.63;;
32918;SDS011;19280;42.646;21.150;2023-02-18T00:12:25;112.53;;;53.42;;
32918;SDS011;19280;42.646;21.150;2023-02-18T00:14:51;121.45;;;56.60;;
32918;SDS011;19280;42.646;21.150;2023-02-18T00:17:17;118.47;;;54.92;;
32918;SDS011;19280;42.646;21.150;2023-02-18T00:19:43;103.45;;;50.17;;
32918;SDS011;19280;42.646;21.150;2023-02-18T00:22:09;113.20;;;50.22;;
32918;SDS011;19280;42.646;21.150;2023-02-18T00:24:35;117.05;;;51.80;;
32918;SDS011;19280;42.646;21.150;2023-02-18T00:27:01;105.53;;;51.58;;
32918;SDS011;19280;42.646;21.150;2023-02-18T00:29:27;122.65;;;54.35;;
32918;SDS011;19280;42.646;21.150;2023-02-18T00:31:53;117.53;;;53.33;;
32918;SDS011;19280;42.646;21.150;2023-02-18T00:34:19;111.43;;;49.08;;
32918;SDS011;19280;42.646;21.150;2023-02-18T00:36:45;95.82;;;42.55;;
32918;SDS011;19280;42.646;21.150;2023-02-18T00:39:11;87.70;;;42.17;;
32918;SDS011;19280;42.646;21.150;2023-02-18T00:41:37;105.10;;;41.90;;
32918;SDS011;19280;42.646;21.150;2023-02-18T00:44:04;78.75;;;38.80;;
32918;SDS011;19280;42.646;21.150;2023-02-18T00:46:30;80.35;;;38.20;;
32918;SDS011;19280;42.646;21.150;2023-02-18T00:48:56;84.05;;;39.70;;
32918;SDS011;19280;42.646;21.150;2023-02-18T00:51:22;83.45;;;38.28;;
32918;SDS011;19280;42.646;21.150;2023-02-18T00:53:49;86.95;;;39.45;;
32918;SDS011;19280;42.646;21.150;2023-02-18T00:56:15;86.50;;;41.22;;
32918;SDS011;19280;42.646;21.150;2023-02-18T00:58:41;91.70;;;44.33;;
32918;SDS011;19280;42.646;21.150;2023-02-18T01:01:07;95.88;;;44.40;;
32918;SDS011;19280;42.646;21.150;2023-02-18T01:03:37;83.60;;;39.55;;
32918;SDS011;19280;42.646;21.150;2023-02-18T01:06:04;84.38;;;42.92;;
32918;SDS011;19280;42.646;21.150;2023-02-18T01:08:30;91.63;;;42.60;;
32918;SDS011;19280;42.646;21.150;2023-02-18T01:10:57;88.30;;;42.00;;
32918;SDS011;19280;42.646;21.150;2023-02-18T01:13:23;72.53;;;38.67;;
32918;SDS011;19280;42.646;21.150;2023-02-18T01:15:49;85.72;;;40.25;;
32918;SDS011;19280;42.646;21.150;2023-02-18T01:18:16;81.57;;;39.95;;
32918;SDS011;19280;42.646;21.150;2023-02-18T01:20:42;80.15;;;40.80;;
32918;SDS011;19280;42.646;21.150;2023-02-18T01:23:09;83.15;;;40.65;;
32918;SDS011;19280;42.646;21.150;2023-02-18T01:25:35;84.80;;;40.97;;
32918;SDS011;19280;42.646;21.150;2023-02-18T01:28:02;85.32;;;41.80;;
32918;SDS011;19280;42.646;21.150;2023-02-18T01:30:28;91.95;;;44.50;;
32918;SDS011;19280;42.646;21.150;2023-02-18T01:32:54;86.10;;;42.95;;
32918;SDS011;19280;42.646;21.150;2023-02-18T01:35:21;88.65;;;42.67;;
32918;SDS011;19280;42.646;21.150;2023-02-18T01:37:48;81.47;;;39.45;;
32918;SDS011;19280;42.646;21.150;2023-02-18T01:40:15;80.70;;;38.92;;
32918;SDS011;19280;42.646;21.150;2023-02-18T01:42:42;72.65;;;36.60;;
32918;SDS011;19280;42.646;21.150;2023-02-18T01:47:52;74.10;;;35.83;;
32918;SDS011;19280;42.646;21.150;2023-02-18T01:50:18;75.47;;;34.38;;
32918;SDS011;19280;42.646;21.150;2023-02-18T01:52:44;69.00;;;33.80;;
32918;SDS011;19280;42.646;21.150;2023-02-18T01:55:10;76.85;;;35.05;;
32918;SDS011;19280;42.646;21.150;2023-02-18T01:57:36;76.82;;;35.33;;
32918;SDS011;19280;42.646;21.150;2023-02-18T02:00:05;68.25;;;32.50;;
32918;SDS011;19280;42.646;21.150;2023-02-18T02:02:32;69.18;;;32.65;;
32918;SDS011;19280;42.646;21.150;2023-02-18T02:05:00;68.05;;;31.95;;
32918;SDS011;19280;42.646;21.150;2023-02-18T02:07:26;61.60;;;33.17;;
32918;SDS011;19280;42.646;21.150;2023-02-18T02:09:52;77.85;;;36.95;;
32918;SDS011;19280;42.646;21.150;2023-02-18T02:17:55;65.75;;;31.30;;
32918;SDS011;19280;42.646;21.150;2023-02-18T02:20:29;70.13;;;32.15;;
32918;SDS011;19280;42.646;21.150;2023-02-18T02:28:23;64.13;;;31.45;;
32918;SDS011;19280;42.646;21.150;2023-02-18T02:33:28;67.93;;;33.53;;
32918;SDS011;19280;42.646;21.150;2023-02-18T02:38:48;65.60;;;31.33;;
32918;SDS011;19280;42.646;21.150;2023-02-18T02:44:04;77.18;;;32.72;;
32918;SDS011;19280;42.646;21.150;2023-02-18T02:46:39;68.20;;;32.20;;
32918;SDS011;19280;42.646;21.150;2023-02-18T02:54:23;55.80;;;29.57;;
32918;SDS011;19280;42.646;21.150;2023-02-18T02:56:49;52.75;;;26.40;;
32918;SDS011;19280;42.646;21.150;2023-02-18T02:59:19;56.78;;;30.05;;
32918;SDS011;19280;42.646;21.150;2023-02-18T03:14:55;71.30;;;29.20;;
32918;SDS011;19280;42.646;21.150;2023-02-18T03:17:24;63.97;;;30.17;;
32918;SDS011;19280;42.646;21.150;2023-02-18T03:19:54;59.25;;;27.98;;
32918;SDS011;19280;42.646;21.150;2023-02-18T03:22:24;71.97;;;30.10;;
32918;SDS011;19280;42.646;21.150;2023-02-18T03:24:51;56.75;;;25.85;;
32918;SDS011;19280;42.646;21.150;2023-02-18T03:29:44;56.78;;;26.15;;
32918;SDS011;19280;42.646;21.150;2023-02-18T03:32:11;51.63;;;25.25;;
32918;SDS011;19280;42.646;21.150;2023-02-18T03:34:43;50.20;;;23.33;;
32918;SDS011;19280;42.646;21.150;2023-02-18T03:37:10;50.35;;;26.48;;
32918;SDS011;19280;42.646;21.150;2023-02-18T03:39:38;50.45;;;23.92;;
32918;SDS011;19280;42.646;21.150;2023-02-18T03:42:06;51.63;;;24.45;;
32918;SDS011;19280;42.646;21.150;2023-02-18T03:44:32;43.90;;;22.42;;
32918;SDS011;19280;42.646;21.150;2023-02-18T03:46:58;43.58;;;20.98;;
32918;SDS011;19280;42.646;21.150;2023-02-18T03:49:24;43.20;;;20.73;;
32918;SDS011;19280;42.646;21.150;2023-02-18T03:51:50;37.85;;;20.63;;
32918;SDS011;19280;42.646;21.150;2023-02-18T03:54:16;39.47;;;20.65;;
32918;SDS011;19280;42.646;21.150;2023-02-18T03:56:43;46.22;;;23.10;;
32918;SDS011;19280;42.646;21.150;2023-02-18T03:59:10;50.03;;;24.20;;
32918;SDS011;19280;42.646;21.150;2023-02-18T04:01:37;46.25;;;22.30;;
32918;SDS011;19280;42.646;21.150;2023-02-18T04:04:03;41.05;;;22.88;;
32918;SDS011;19280;42.646;21.150;2023-02-18T04:06:29;47.03;;;24.02;;
32918;SDS011;19280;42.646;21.150;2023-02-18T04:08:55;47.15;;;24.38;;
32918;SDS011;19280;42.646;21.150;2023-02-18T04:11:21;45.85;;;23.70;;
32918;SDS011;19280;42.646;21.150;2023-02-18T04:13:47;51.72;;;24.42;;
32918;SDS011;19280;42.646;21.150;2023-02-18T04:16:13;53.70;;;25.08;;
32918;SDS011;19280;42.646;21.150;2023-02-18T04:18:39;53.72;;;25.25;;
32918;SDS011;19280;42.646;21.150;2023-02-18T04:21:05;63.75;;;26.33;;
32918;SDS011;19280;42.646;21.150;2023-02-18T04:23:31;57.85;;;27.27;;
32918;SDS011;19280;42.646;21.150;2023-02-18T04:25:57;58.55;;;27.60;;
32918;SDS011;19280;42.646;21.150;2023-02-18T04:28:23;55.35;;;28.23;;
32918;SDS011;19280;42.646;21.150;2023-02-18T04:30:49;61.63;;;30.73;;
32918;SDS011;19280;42.646;21.150;2023-02-18T04:33:15;65.47;;;30.25;;
32918;SDS011;19280;42.646;21.150;2023-02-18T04:35:42;55.38;;;29.00;;
32918;SDS011;19280;42.646;21.150;2023-02-18T04:38:08;57.75;;;27.45;;
32918;SDS011;19280;42.646;21.150;2023-02-18T04:40:35;61.83;;;30.02;;
32918;SDS011;19280;42.646;21.150;2023-02-18T04:43:01;57.65;;;28.58;;
32918;SDS011;19280;42.646;21.150;2023-02-18T04:45:28;50.65;;;28.35;;
32918;SDS011;19280;42.646;21.150;2023-02-18T04:47:54;51.15;;;26.05;;
32918;SDS011;19280;42.646;21.150;2023-02-18T04:50:20;51.83;;;26.67;;
32918;SDS011;19280;42.646;21.150;2023-02-18T04:52:47;56.60;;;26.67;;
32918;SDS011;19280;42.646;21.150;2023-02-18T04:55:13;61.45;;;29.08;;
32918;SDS011;19280;42.646;21.150;2023-02-18T04:57:39;62.15;;;27.50;;
32918;SDS011;19280;42.646;21.150;2023-02-18T05:00:06;56.00;;;28.08;;
32918;SDS011;19280;42.646;21.150;2023-02-18T05:02:32;57.22;;;27.95;;
32918;SDS011;19280;42.646;21.150;2023-02-18T05:04:58;56.60;;;29.15;;
32918;SDS011;19280;42.646;21.150;2023-02-18T05:07:24;61.50;;;28.38;;
32918;SDS011;19280;42.646;21.150;2023-02-18T05:09:50;65.18;;;31.15;;
32918;SDS011;19280;42.646;21.150;2023-02-18T05:12:16;62.13;;;28.63;;
32918;SDS011;19280;42.646;21.150;2023-02-18T05:14:43;54.13;;;27.50;;
32918;SDS011;19280;42.646;21.150;2023-02-18T05:17:09;50.28;;;26.05;;
32918;SDS011;19280;42.646;21.150;2023-02-18T05:19:35;48.75;;;26.17;;
32918;SDS011;19280;42.646;21.150;2023-02-18T05:22:01;49.22;;;22.80;;
32918;SDS011;19280;42.646;21.150;2023-02-18T05:24:27;46.33;;;22.65;;
32918;SDS011;19280;42.646;21.150;2023-02-18T05:26:53;46.25;;;22.25;;
32918;SDS011;19280;42.646;21.150;2023-02-18T05:29:19;43.28;;;20.10;;
32918;SDS011;19280;42.646;21.150;2023-02-18T05:31:45;47.45;;;23.98;;
32918;SDS011;19280;42.646;21.150;2023-02-18T05:34:11;47.08;;;21.55;;
32918;SDS011;19280;42.646;21.150;2023-02-18T05:36:37;45.00;;;23.73;;
32918;SDS011;19280;42.646;21.150;2023-02-18T05:39:03;48.67;;;23.58;;
32918;SDS011;19280;42.646;21.150;2023-02-18T05:41:29;52.08;;;23.08;;
32918;SDS011;19280;42.646;21.150;2023-02-18T05:43:55;55.08;;;24.45;;
32918;SDS011;19280;42.646;21.150;2023-02-18T05:46:40;49.05;;;22.65;;
32918;SDS011;19280;42.646;21.150;2023-02-18T05:49:06;55.15;;;23.27;;
32918;SDS011;19280;42.646;21.150;2023-02-18T05:51:32;54.90;;;21.70;;
32918;SDS011;19280;42.646;21.150;2023-02-18T05:53:58;42.55;;;19.63;;
32918;SDS011;19280;42.646;21.150;2023-02-18T05:56:24;44.13;;;20.98;;
32918;SDS011;19280;42.646;21.150;2023-02-18T05:58:50;42.08;;;22.02;;
32918;SDS011;19280;42.646;21.150;2023-02-18T06:01:16;42.88;;;20.17;;
32918;SDS011;19280;42.646;21.150;2023-02-18T06:03:42;41.78;;;21.30;;
32918;SDS011;19280;42.646;21.150;2023-02-18T06:06:08;42.25;;;19.50;;
32918;SDS011;19280;42.646;21.150;2023-02-18T06:08:34;43.05;;;20.98;;
32918;SDS011;19280;42.646;21.150;2023-02-18T06:11:00;51.00;;;21.20;;
32918;SDS011;19280;42.646;21.150;2023-02-18T06:13:26;47.17;;;23.00;;
32918;SDS011;19280;42.646;21.150;2023-02-18T06:15:52;45.67;;;21.90;;
32918;SDS011;19280;42.646;21.150;2023-02-18T06:18:19;46.25;;;23.13;;
32918;SDS011;19280;42.646;21.150;2023-02-18T06:20:46;38.72;;;21.05;;
32918;SDS011;19280;42.646;21.150;2023-02-18T06:23:12;42.70;;;22.08;;
32918;SDS011;19280;42.646;21.150;2023-02-18T06:25:38;45.38;;;21.50;;
32918;SDS011;19280;42.646;21.150;2023-02-18T06:28:04;47.03;;;21.50;;
32918;SDS011;19280;42.646;21.150;2023-02-18T06:30:30;42.40;;;22.63;;
32918;SDS011;19280;42.646;21.150;2023-02-18T06:32:56;41.65;;;21.27;;
32918;SDS011;19280;42.646;21.150;2023-02-18T06:35:22;42.50;;;22.90;;
32918;SDS011;19280;42.646;21.150;2023-02-18T06:37:48;42.40;;;22.38;;
32918;SDS011;19280;42.646;21.150;2023-02-18T06:40:14;53.40;;;28.05;;
32918;SDS011;19280;42.646;21.150;2023-02-18T06:42:41;47.90;;;25.50;;
32918;SDS011;19280;42.646;21.150;2023-02-18T06:45:07;47.90;;;25.08;;
32918;SDS011;19280;42.646;21.150;2023-02-18T06:47:33;37.10;;;20.50;;
32918;SDS011;19280;42.646;21.150;2023-02-18T06:49:59;40.72;;;20.77;;
32918;SDS011;19280;42.646;21.150;2023-02-18T06:52:26;36.28;;;19.55;;
32918;SDS011;19280;42.646;21.150;2023-02-18T06:54:54;36.22;;;19.23;;
32918;SDS011;19280;42.646;21.150;2023-02-18T06:57:20;39.15;;;20.80;;
32918;SDS011;19280;42.646;21.150;2023-02-18T06:59:46;45.75;;;23.27;;
32918;SDS011;19280;42.646;21.150;2023-02-18T07:02:12;37.60;;;22.35;;
32918;SDS011;19280;42.646;21.150;2023-02-18T07:04:38;39.03;;;22.40;;
32918;SDS011;19280;42.646;21.150;2023-02-18T07:07:04;57.30;;;28.33;;
32918;SDS011;19280;42.646;21.150;2023-02-18T07:09:30;41.75;;;22.98;;
32918;SDS011;19280;42.646;21.150;2023-02-18T07:11:56;54.72;;;26.33;;
32918;SDS011;19280;42.646;21.150;2023-02-18T07:14:23;43.85;;;25.20;;
32918;SDS011;19280;42.646;21.150;2023-02-18T07:16:50;52.28;;;29.90;;
32918;SDS011;19280;42.646;21.150;2023-02-18T07:19:17;38.58;;;21.40;;
32918;SDS011;19280;42.646;21.150;2023-02-18T07:21:43;48.40;;;29.10;;
32918;SDS011;19280;42.646;21.150;2023-02-18T07:24:09;39.80;;;21.58;;
32918;SDS011;19280;42.646;21.150;2023-02-18T07:26:35;37.72;;;21.08;;
32918;SDS011;19280;42.646;21.150;2023-02-18T07:29:01;36.95;;;19.55;;
32918;SDS011;19280;42.646;21.150;2023-02-18T07:31:27;34.35;;;18.48;;
32918;SDS011;19280;42.646;21.150;2023-02-18T07:33:53;30.90;;;18.60;;
32918;SDS011;19280;42.646;21.150;2023-02-18T07:36:20;34.60;;;17.70;;
32918;SDS011;19280;42.646;21.150;2023-02-18T07:38:46;30.75;;;17.30;;
32918;SDS011;19280;42.646;21.150;2023-02-18T07:41:20;20.52;;;12.80;;
32918;SDS011;19280;42.646;21.150;2023-02-18T07:43:46;23.45;;;14.07;;
32918;SDS011;19280;42.646;21.150;2023-02-18T07:46:12;17.20;;;8.15;;
32918;SDS011;19280;42.646;21.150;2023-02-18T07:48:38;11.07;;;7.13;;
32918;SDS011;19280;42.646;21.150;2023-02-18T07:51:05;16.95;;;8.77;;
32918;SDS011;19280;42.646;21.150;2023-02-18T07:53:31;18.77;;;9.95;;
32918;SDS011;19280;42.646;21.150;2023-02-18T07:55:58;21.42;;;9.68;;
32918;SDS011;19280;42.646;21.150;2023-02-18T07:58:25;12.77;;;7.22;;
32918;SDS011;19280;42.646;21.150;2023-02-18T08:00:52;17.80;;;9.38;;
32918;SDS011;19280;42.646;21.150;2023-02-18T08:03:19;15.98;;;7.93;;
32918;SDS011;19280;42.646;21.150;2023-02-18T08:05:48;14.48;;;7.32;;
32918;SDS011;19280;42.646;21.150;2023-02-18T08:08:16;16.27;;;7.63;;
32918;SDS011;19280;42.646;21.150;2023-02-18T08:10:44;11.70;;;7.47;;
32918;SDS011;19280;42.646;21.150;2023-02-18T08:13:11;13.30;;;7.85;;
32918;SDS011;19280;42.646;21.150;2023-02-18T08:15:37;19.42;;;8.32;;
32918;SDS011;19280;42.646;21.150;2023-02-18T08:18:03;16.00;;;9.60;;
32918;SDS011;19280;42.646;21.150;2023-02-18T08:20:30;16.85;;;8.48;;
32918;SDS011;19280;42.646;21.150;2023-02-18T08:22:56;14.82;;;8.70;;
32918;SDS011;19280;42.646;21.150;2023-02-18T08:25:22;16.17;;;10.52;;
32918;SDS011;19280;42.646;21.150;2023-02-18T08:27:48;27.83;;;15.70;;
32918;SDS011;19280;42.646;21.150;2023-02-18T08:30:14;15.82;;;8.23;;
32918;SDS011;19280;42.646;21.150;2023-02-18T08:32:40;14.15;;;7.55;;
32918;SDS011;19280;42.646;21.150;2023-02-18T08:35:06;13.27;;;8.15;;
32918;SDS011;19280;42.646;21.150;2023-02-18T08:37:33;12.07;;;8.27;;
32918;SDS011;19280;42.646;21.150;2023-02-18T08:40:00;14.70;;;8.23;;
32918;SDS011;19280;42.646;21.150;2023-02-18T08:42:26;15.15;;;7.80;;
32918;SDS011;19280;42.646;21.150;2023-02-18T08:44:52;13.27;;;8.60;;
32918;SDS011;19280;42.646;21.150;2023-02-18T08:47:18;10.50;;;7.70;;
32918;SDS011;19280;42.646;21.150;2023-02-18T08:49:44;18.65;;;10.07;;
32918;SDS011;19280;42.646;21.150;2023-02-18T08:52:10;13.50;;;8.50;;
32918;SDS011;19280;42.646;21.150;2023-02-18T08:54:36;18.75;;;11.57;;
32918;SDS011;19280;42.646;21.150;2023-02-18T08:57:02;16.83;;;10.13;;
32918;SDS011;19280;42.646;21.150;2023-02-18T08:59:28;18.30;;;10.05;;
32918;SDS011;19280;42.646;21.150;2023-02-18T09:01:54;15.20;;;9.00;;
32918;SDS011;19280;42.646;21.150;2023-02-18T09:04:20;18.10;;;9.63;;
32918;SDS011;19280;42.646;21.150;2023-02-18T09:06:47;15.73;;;9.13;;
32918;SDS011;19280;42.646;21.150;2023-02-18T09:09:14;15.15;;;7.75;;
32918;SDS011;19280;42.646;21.150;2023-02-18T09:11:40;15.45;;;7.70;;
32918;SDS011;19280;42.646;21.150;2023-02-18T09:14:06;18.95;;;7.85;;
32918;SDS011;19280;42.646;21.150;2023-02-18T09:16:32;19.23;;;7.90;;
32918;SDS011;19280;42.646;21.150;2023-02-18T09:18:58;20.05;;;8.00;;
32918;SDS011;19280;42.646;21.150;2023-02-18T09:21:25;15.02;;;7.90;;
32918;SDS011;19280;42.646;21.150;2023-02-18T09:23:51;19.13;;;8.90;;
32918;SDS011;19280;42.646;21.150;2023-02-18T09:26:18;15.52;;;7.35;;
32918;SDS011;19280;42.646;21.150;2023-02-18T09:28:47;30.73;;;8.38;;
32918;SDS011;19280;42.646;21.150;2023-02-18T09:31:14;13.38;;;8.07;;
32918;SDS011;19280;42.646;21.150;2023-02-18T09:33:42;18.98;;;8.38;;
32918;SDS011;19280;42.646;21.150;2023-02-18T09:36:08;16.73;;;7.60;;
32918;SDS011;19280;42.646;21.150;2023-02-18T09:38:35;16.48;;;7.90;;
32918;SDS011;19280;42.646;21.150;2023-02-18T09:41:02;15.70;;;7.97;;
32918;SDS011;19280;42.646;21.150;2023-02-18T09:46:01;16.30;;;8.48;;
32918;SDS011;19280;42.646;21.150;2023-02-18T09:48:30;17.77;;;8.57;;
32918;SDS011;19280;42.646;21.150;2023-02-18T09:50:56;13.50;;;8.43;;
32918;SDS011;19280;42.646;21.150;2023-02-18T09:53:23;16.13;;;8.30;;
32918;SDS011;19280;42.646;21.150;2023-02-18T09:55:50;19.15;;;8.13;;
32918;SDS011;19280;42.646;21.150;2023-02-18T09:58:18;13.68;;;8.30;;
32918;SDS011;19280;42.646;21.150;2023-02-18T10:00:50;20.48;;;10.13;;
32918;SDS011;19280;42.646;21.150;2023-02-18T10:03:18;19.33;;;8.30;;
32918;SDS011;19280;42.646;21.150;2023-02-18T10:05:55;13.23;;;7.10;;
32918;SDS011;19280;42.646;21.150;2023-02-18T10:08:26;13.55;;;7.63;;
32918;SDS011;19280;42.646;21.150;2023-02-18T10:10:53;12.82;;;8.60;;
32918;SDS011;19280;42.646;21.150;2023-02-18T10:13:23;17.15;;;7.72;;
32918;SDS011;19280;42.646;21.150;2023-02-18T10:15:49;13.00;;;7.40;;
32918;SDS011;19280;42.646;21.150;2023-02-18T10:20:48;11.15;;;6.57;;
32918;SDS011;19280;42.646;21.150;2023-02-18T10:23:15;16.67;;;7.47;;
32918;SDS011;19280;42.646;21.150;2023-02-18T10:25:43;10.15;;;6.97;;
32918;SDS011;19280;42.646;21.150;2023-02-18T10:28:10;15.70;;;8.05;;
32918;SDS011;19280;42.646;21.150;2023-02-18T10:30:39;13.60;;;7.15;;
32918;SDS011;19280;42.646;21.150;2023-02-18T10:35:50;13.55;;;7.20;;
32918;SDS011;19280;42.646;21.150;2023-02-18T10:45:59;14.20;;;7.70;;
32918;SDS011;19280;42.646;21.150;2023-02-18T10:50:53;13.63;;;6.78;;
32918;SDS011;19280;42.646;21.150;2023-02-18T10:53:33;11.63;;;7.60;;
32918;SDS011;19280;42.646;21.150;2023-02-18T10:55:59;10.57;;;6.80;;
32918;SDS011;19280;42.646;21.150;2023-02-18T11:01:02;20.02;;;9.40;;
32918;SDS011;19280;42.646;21.150;2023-02-18T11:03:48;16.67;;;10.27;;
32918;SDS011;19280;42.646;21.150;2023-02-18T11:06:29;12.73;;;7.75;;
32918;SDS011;19280;42.646;21.150;2023-02-18T11:08:56;13.73;;;7.18;;
32918;SDS011;19280;42.646;21.150;2023-02-18T11:11:32;13.85;;;7.32;;
32918;SDS011;19280;42.646;21.150;2023-02-18T11:14:02;17.25;;;7.35;;
32918;SDS011;19280;42.646;21.150;2023-02-18T11:16:38;13.77;;;6.68;;
32918;SDS011;19280;42.646;21.150;2023-02-18T11:19:04;16.13;;;7.70;;
32918;SDS011;19280;42.646;21.150;2023-02-18T11:21:33;16.90;;;8.55;;
32918;SDS011;19280;42.646;21.150;2023-02-18T11:24:08;16.83;;;8.77;;
32918;SDS011;19280;42.646;21.150;2023-02-18T11:26:35;22.92;;;8.90;;
32918;SDS011;19280;42.646;21.150;2023-02-18T11:29:05;16.40;;;8.13;;
32918;SDS011;19280;42.646;21.150;2023-02-18T11:31:38;26.17;;;7.55;;
32918;SDS011;19280;42.646;21.150;2023-02-18T11:34:05;10.27;;;6.90;;
32918;SDS011;19280;42.646;21.150;2023-02-18T11:36:32;15.77;;;6.40;;
32918;SDS011;19280;42.646;21.150;2023-02-18T11:39:11;11.68;;;6.47;;
32918;SDS011;19280;42.646;21.150;2023-02-18T11:41:41;12.13;;;6.45;;
32918;SDS011;19280;42.646;21.150;2023-02-18T11:44:19;15.07;;;5.80;;
32918;SDS011;19280;42.646;21.150;2023-02-18T11:46:55;8.82;;;4.88;;
32918;SDS011;19280;42.646;21.150;2023-02-18T11:49:22;12.70;;;5.55;;
32918;SDS011;19280;42.646;21.150;2023-02-18T11:51:48;11.70;;;5.20;;
32918;SDS011;19280;42.646;21.150;2023-02-18T11:56:57;9.95;;;5.50;;
32918;SDS011;19280;42.646;21.150;2023-02-18T11:59:24;7.55;;;5.78;;
32918;SDS011;19280;42.646;21.150;2023-02-18T12:01:53;8.40;;;5.25;;
32918;SDS011;19280;42.646;21.150;2023-02-18T12:04:20;11.45;;;6.30;;
32918;SDS011;19280;42.646;21.150;2023-02-18T12:09:21;13.02;;;6.13;;
32918;SDS011;19280;42.646;21.150;2023-02-18T12:11:50;12.15;;;5.93;;
32918;SDS011;19280;42.646;21.150;2023-02-18T12:14:18;12.20;;;5.72;;
32918;SDS011;19280;42.646;21.150;2023-02-18T12:22:18;13.07;;;5.55;;
32918;SDS011;19280;42.646;21.150;2023-02-18T12:24:59;12.50;;;6.00;;
32918;SDS011;19280;42.646;21.150;2023-02-18T12:27:32;12.95;;;6.18;;
32918;SDS011;19280;42.646;21.150;2023-02-18T12:40:45;13.45;;;6.55;;
32918;SDS011;19280;42.646;21.150;2023-02-18T12:48:33;14.85;;;7.13;;
32918;SDS011;19280;42.646;21.150;2023-02-18T12:53:36;14.07;;;6.10;;
32918;SDS011;19280;42.646;21.150;2023-02-18T12:56:24;12.10;;;5.75;;
32918;SDS011;19280;42.646;21.150;2023-02-18T13:17:16;11.52;;;5.47;;
32918;SDS011;19280;42.646;21.150;2023-02-18T13:19:53;9.75;;;5.97;;
32918;SDS011;19280;42.646;21.150;2023-02-18T13:22:21;11.45;;;6.28;;
32918;SDS011;19280;42.646;21.150;2023-02-18T13:24:48;9.88;;;5.25;;
32918;SDS011;19280;42.646;21.150;2023-02-18T13:30:08;15.88;;;5.57;;
32918;SDS011;19280;42.646;21.150;2023-02-18T13:32:43;17.20;;;5.63;;
32918;SDS011;19280;42.646;21.150;2023-02-18T13:35:30;12.48;;;6.60;;
32918;SDS011;19280;42.646;21.150;2023-02-18T13:40:43;18.75;;;9.07;;
32918;SDS011;19280;42.646;21.150;2023-02-18T13:43:16;18.02;;;8.15;;
32918;SDS011;19280;42.646;21.150;2023-02-18T13:45:43;14.02;;;7.30;;
32918;SDS011;19280;42.646;21.150;2023-02-18T13:48:26;17.60;;;7.07;;
32918;SDS011;19280;42.646;21.150;2023-02-18T13:50:53;14.18;;;6.45;;
32918;SDS011;19280;42.646;21.150;2023-02-18T13:53:20;14.45;;;6.30;;
32918;SDS011;19280;42.646;21.150;2023-02-18T13:55:57;13.05;;;6.13;;
32918;SDS011;19280;42.646;21.150;2023-02-18T14:00:58;17.00;;;6.60;;
32918;SDS011;19280;42.646;21.150;2023-02-18T14:08:39;20.40;;;6.55;;
32918;SDS011;19280;42.646;21.150;2023-02-18T14:16:06;17.75;;;8.50;;
32918;SDS011;19280;42.646;21.150;2023-02-18T14:18:33;10.88;;;6.85;;
32918;SDS011;19280;42.646;21.150;2023-02-18T14:21:20;19.70;;;7.30;;
32918;SDS011;19280;42.646;21.150;2023-02-18T14:23:56;13.63;;;6.05;;
32918;SDS011;19280;42.646;21.150;2023-02-18T14:26:56;13.77;;;5.55;;
32918;SDS011;19280;42.646;21.150;2023-02-18T14:31:45;9.73;;;4.75;;
32918;SDS011;19280;42.646;21.150;2023-02-18T14:42:45;16.23;;;5.90;;
32918;SDS011;19280;42.646;21.150;2023-02-18T14:47:49;7.78;;;5.70;;
32918;SDS011;19280;42.646;21.150;2023-02-18T14:50:19;12.65;;;7.15;;
32918;SDS011;19280;42.646;21.150;2023-02-18T14:52:52;17.63;;;7.53;;
32918;SDS011;19280;42.646;21.150;2023-02-18T14:58:34;12.88;;;6.90;;
32918;SDS011;19280;42.646;21.150;2023-02-18T15:00:34;27.55;;;16.85;;
32918;SDS011;19280;42.646;21.150;2023-02-18T15:03:08;14.63;;;8.45;;
32918;SDS011;19280;42.646;21.150;2023-02-18T15:05:36;32.38;;;18.73;;
32918;SDS011;19280;42.646;21.150;2023-02-18T15:08:06;21.80;;;13.98;;
32918;SDS011;19280;42.646;21.150;2023-02-18T15:13:04;18.73;;;9.95;;
32918;SDS011;19280;42.646;21.150;2023-02-18T15:15:31;21.65;;;10.43;;
32918;SDS011;19280;42.646;21.150;2023-02-18T15:17:57;18.40;;;10.68;;
32918;SDS011;19280;42.646;21.150;2023-02-18T15:20:23;21.15;;;8.85;;
32918;SDS011;19280;42.646;21.150;2023-02-18T15:22:49;17.90;;;7.18;;
32918;SDS011;19280;42.646;21.150;2023-02-18T15:25:15;13.95;;;6.75;;
32918;SDS011;19280;42.646;21.150;2023-02-18T15:27:42;17.70;;;7.97;;
32918;SDS011;19280;42.646;21.150;2023-02-18T15:32:37;27.42;;;11.40;;
32918;SDS011;19280;42.646;21.150;2023-02-18T15:35:13;22.15;;;10.32;;
32918;SDS011;19280;42.646;21.150;2023-02-18T15:37:42;21.95;;;10.23;;
32918;SDS011;19280;42.646;21.150;2023-02-18T15:40:15;22.60;;;10.05;;
32918;SDS011;19280;42.646;21.150;2023-02-18T15:42:41;21.10;;;8.52;;
32918;SDS011;19280;42.646;21.150;2023-02-18T15:45:17;28.67;;;9.20;;
32918;SDS011;19280;42.646;21.150;2023-02-18T15:47:45;18.38;;;7.63;;
32918;SDS011;19280;42.646;21.150;2023-02-18T15:50:16;24.80;;;8.68;;
32918;SDS011;19280;42.646;21.150;2023-02-18T15:52:43;19.00;;;9.27;;
32918;SDS011;19280;42.646;21.150;2023-02-18T15:55:14;19.48;;;8.50;;
32918;SDS011;19280;42.646;21.150;2023-02-18T15:57:42;18.65;;;9.95;;
32918;SDS011;19280;42.646;21.150;2023-02-18T16:00:13;22.13;;;10.50;;
32918;SDS011;19280;42.646;21.150;2023-02-18T16:02:56;21.00;;;10.13;;
32918;SDS011;19280;42.646;21.150;2023-02-18T16:05:27;24.10;;;11.88;;
32918;SDS011;19280;42.646;21.150;2023-02-18T16:08:00;29.50;;;12.32;;
32918;SDS011;19280;42.646;21.150;2023-02-18T16:13:00;30.73;;;13.32;;
32918;SDS011;19280;42.646;21.150;2023-02-18T16:15:30;37.38;;;13.63;;
32918;SDS011;19280;42.646;21.150;2023-02-18T16:17:57;35.05;;;14.13;;
32918;SDS011;19280;42.646;21.150;2023-02-18T16:20:31;30.00;;;13.25;;
32918;SDS011;19280;42.646;21.150;2023-02-18T16:22:58;30.13;;;13.73;;
32918;SDS011;19280;42.646;21.150;2023-02-18T16:25:39;29.00;;;12.15;;
32918;SDS011;19280;42.646;21.150;2023-02-18T16:28:09;27.63;;;11.73;;
32918;SDS011;19280;42.646;21.150;2023-02-18T16:30:36;22.80;;;11.63;;
32918;SDS011;19280;42.646;21.150;2023-02-18T16:33:05;20.50;;;11.55;;
32918;SDS011;19280;42.646;21.150;2023-02-18T16:35:31;19.83;;;11.68;;
32918;SDS011;19280;42.646;21.150;2023-02-18T16:37:58;23.45;;;11.30;;
32918;SDS011;19280;42.646;21.150;2023-02-18T16:40:26;24.73;;;10.45;;
32918;SDS011;19280;42.646;21.150;2023-02-18T16:42:54;19.95;;;10.55;;
32918;SDS011;19280;42.646;21.150;2023-02-18T16:45:22;26.35;;;10.93;;
32918;SDS011;19280;42.646;21.150;2023-02-18T16:47:48;18.83;;;10.32;;
32918;SDS011;19280;42.646;21.150;2023-02-18T16:50:16;24.27;;;11.18;;